• Join FlightAware (Why Join?)
  • Login
  • US Flag 
12:41AM EST


 

Airport Tracker/Info


-or-


 

Live Flight TrackerFlight Track Log ✈ JST281 ✈ 24-Apr-2013 ✈ NZAA / AKL - NZQN

Flight Track Log - Related Links

Times and Time Zones

All times are in EDT time to prevent confusion due to time zone crossing. See the JST281 flight status page for this flight to view local times or setup timezone preferences in your user account.

Time Position Orientation Groundspeed Altitude Reporting Facility
EDT Latitude Longitude Course Direction KTS MPH feet Rate Location/Type
05:20PM -37.0190 174.7630 251° West 155 178 1,200  Level FlightAware
05:21PM -37.0400 174.7440 216° Southwest 167 192 2,400 2,160 Climbing FlightAware
05:21PM -37.0510 174.7380 204° Southwest 166 191 3,000 1,620 Climbing FlightAware
05:22PM -37.0690 174.7280 204° Southwest 181 208 3,500 1,080 Climbing FlightAware
05:22PM -37.0930 174.7140 205° Southwest 228 262 4,000 1,380 Climbing FlightAware
05:23PM -37.1200 174.7000 202° Southwest 258 297 4,800 2,460 Climbing FlightAware
05:23PM -37.1540 174.6830 202° Southwest 269 310 6,300 3,180 Climbing FlightAware
05:24PM -37.1890 174.6660 201° Southwest 276 318 8,000 3,000 Climbing FlightAware
05:24PM -37.2180 174.6510 202° Southwest 281 323 9,100 2,400 Climbing FlightAware
05:25PM -37.2750 174.6220 202° Southwest 306 352 10,800 1,740 Climbing FlightAware
05:25PM -37.3360 174.5910 202° Southwest 352 405 11,600 1,800 Climbing FlightAware
05:26PM -37.3960 174.5600 202° Southwest 362 417 13,200 2,220 Climbing FlightAware
05:27PM -37.4700 174.5230 202° Southwest 374 430 14,800 2,220 Climbing FlightAware
05:27PM -37.5340 174.4890 203° Southwest 376 433 16,400 2,400 Climbing FlightAware
05:28PM -37.5930 174.4590 202° Southwest 376 433 18,000 1,560 Climbing FlightAware
05:29PM -37.6750 174.4170 202° Southwest 379 436 18,800 480 Climbing FlightAware
05:30PM -37.7440 174.3820 202° Southwest 379 436 18,800  Level FlightAware
05:30PM -37.7990 174.3530 203° Southwest 379 436 18,800 2,940 Level FlightAware
05:31PM -37.9110 174.2940 203° Southwest 413 475 23,000 3,600 Climbing FlightAware
05:32PM -37.9830 174.2570 202° Southwest 421 484 23,900 1,320 Climbing FlightAware
05:33PM -38.0560 174.2190 202° Southwest 426 490 24,800 1,260 Climbing FlightAware
05:33PM -38.1370 174.1760 203° Southwest 435 501 25,700 1,200 Climbing FlightAware
05:34PM -38.2120 174.1360 203° Southwest 439 505 26,500 1,260 Climbing FlightAware
05:35PM -38.2950 174.0930 202° Southwest 442 509 27,500 1,080 Climbing FlightAware
05:35PM -38.3760 174.0500 203° Southwest 450 518 28,100 900 Climbing FlightAware
05:36PM -38.4500 174.0110 202° Southwest 453 521 28,700 1,020 Climbing FlightAware
05:37PM -38.5330 173.9670 203° Southwest 452 520 29,600 1,320 Climbing FlightAware
05:37PM -38.6160 173.9230 202° Southwest 448 516 30,600 1,500 Climbing FlightAware
05:38PM -38.7010 173.8780 202° Southwest 440 506 31,800 1,320 Climbing FlightAware
05:39PM -38.7640 173.8440 203° Southwest 440 506 32,400 1,080 Climbing FlightAware
05:40PM -38.8510 173.7970 203° Southwest 436 502 33,300 960 Climbing FlightAware
05:40PM -38.9310 173.7540 203° Southwest 436 502 33,900 480 Climbing FlightAware
05:41PM -39.0100 173.7120 202° Southwest 434 499 34,000 60 Climbing FlightAware
05:42PM -39.0890 173.6560 209° Southwest 426 490 34,000  Level FlightAware
05:42PM -39.1520 173.6020 214° Southwest 426 490 34,000  Level FlightAware
05:44PM -39.2620 173.5080 213° Southwest 425 489 34,000  Level FlightAware
05:44PM -39.3320 173.4500 213° Southwest 427 491 34,000  Level FlightAware
05:45PM -39.4080 173.3850 213° Southwest 427 491 34,000  Level FlightAware
05:46PM -39.4740 173.3290 213° Southwest 425 489 34,000  Level FlightAware
05:46PM -39.5490 173.2650 213° Southwest 422 486 34,000  Level FlightAware
05:47PM -39.6130 173.2100 214° Southwest 422 486 34,000  Level FlightAware
05:48PM -39.6790 173.1530 214° Southwest 423 487 34,000  Level FlightAware
05:48PM -39.7490 173.0920 214° Southwest 424 488 34,000  Level FlightAware
05:49PM -39.8180 173.0330 213° Southwest 426 490 34,000  Level FlightAware
05:50PM -39.8930 172.9680 214° Southwest 428 493 34,000  Level FlightAware
05:51PM -39.9650 172.9060 213° Southwest 428 493 34,000  Level FlightAware
05:51PM -40.0300 172.8490 214° Southwest 427 491 34,000  Level FlightAware
05:52PM -40.0980 172.7900 214° Southwest 426 490 34,000  Level FlightAware
05:53PM -40.1660 172.7300 214° Southwest 428 493 34,000  Level FlightAware
05:53PM -40.2330 172.6700 214° Southwest 428 493 34,000  Level FlightAware
05:54PM -40.3030 172.6090 214° Southwest 428 493 34,000  Level FlightAware
05:55PM -40.3720 172.5480 214° Southwest 427 491 34,000  Level FlightAware
05:55PM -40.4420 172.4870 214° Southwest 426 490 34,000  Level FlightAware
05:56PM -40.5100 172.4260 214° Southwest 424 488 34,000  Level FlightAware
05:57PM -40.5800 172.3640 214° Southwest 424 488 34,000  Level FlightAware
05:58PM -40.6450 172.3060 214° Southwest 423 487 34,000  Level FlightAware
05:58PM -40.7180 172.2410 214° Southwest 424 488 34,000  Level FlightAware
05:59PM -40.7820 172.1840 214° Southwest 426 490 34,000  Level FlightAware
06:00PM -40.8330 172.1380 214° Southwest 425 489 34,000  Level FlightAware
06:00PM -40.9190 172.0610 214° Southwest 427 491 34,000  Level FlightAware
06:01PM -40.9840 172.0030 214° Southwest 426 490 34,000  Level FlightAware
06:02PM -41.0570 171.9370 214° Southwest 417 480 34,000  Level FlightAware
06:02PM -41.1190 171.8800 215° Southwest 415 478 34,000  Level FlightAware
06:03PM -41.1930 171.8120 215° Southwest 413 475 34,000  Level FlightAware
06:04PM -41.2550 171.7560 214° Southwest 413 475 34,000  Level FlightAware
06:05PM -41.3210 171.6960 214° Southwest 414 476 34,000  Level FlightAware
06:05PM -41.3930 171.6290 215° Southwest 415 478 34,000  Level FlightAware
06:06PM -41.4580 171.5700 214° Southwest 417 480 34,000  Level FlightAware
06:07PM -41.5300 171.5040 214° Southwest 418 481 34,000  Level FlightAware
06:07PM -41.5970 171.4420 215° Southwest 426 490 34,000  Level FlightAware
06:08PM -41.6620 171.3820 215° Southwest 428 493 34,000  Level FlightAware
06:09PM -41.7350 171.3150 214° Southwest 428 493 34,000  Level FlightAware
06:09PM -41.8010 171.2530 215° Southwest 428 493 34,000  Level FlightAware
06:10PM -41.8730 171.1860 215° Southwest 420 483 34,000  Level FlightAware
06:11PM -41.9370 171.1260 215° Southwest 421 484 34,000  Level FlightAware
06:12PM -42.0030 171.0630 215° Southwest 429 494 34,000  Level FlightAware
06:12PM -42.0770 170.9930 215° Southwest 431 496 34,000  Level FlightAware
06:13PM -42.1360 170.9380 215° Southwest 432 497 34,000  Level FlightAware
06:14PM -42.2160 170.8610 215° Southwest 432 497 34,000  Level FlightAware
06:14PM -42.2810 170.8000 215° Southwest 432 497 34,000  Level FlightAware
06:15PM -42.3470 170.7370 215° Southwest 431 496 34,000  Level FlightAware
06:16PM -42.4200 170.6670 215° Southwest 431 496 34,000  Level FlightAware
06:16PM -42.4860 170.6040 215° Southwest 430 495 34,000  Level FlightAware
06:17PM -42.5580 170.5350 215° Southwest 423 487 34,000  Level FlightAware
06:19PM -42.7300 170.3690 215° Southwest 422 486 34,000  Level FlightAware
06:20PM -42.8430 170.2590 216° Southwest 422 486 34,000  Level FlightAware
06:21PM -42.9560 170.1490 215° Southwest 422 486 34,000  Level FlightAware
06:23PM -43.0850 170.0220 216° Southwest 422 486 34,000  Level FlightAware
06:24PM -43.2060 169.9030 216° Southwest 423 487 34,000  Level FlightAware
06:25PM -43.2700 169.8390 216° Southwest 424 488 34,000  Level FlightAware
06:25PM -43.3410 169.7680 216° Southwest 424 488 34,000  Level FlightAware
06:26PM -43.4070 169.7030 216° Southwest 426 490 34,000  Level FlightAware
06:27PM -43.4700 169.6400 216° Southwest 424 488 34,000  Level FlightAware
06:27PM -43.5460 169.5650 216° Southwest 423 487 34,000  Level FlightAware
06:28PM -43.6080 169.5020 216° Southwest 421 484 34,000  Level FlightAware
06:29PM -43.6710 169.4380 216° Southwest 422 486 34,000  Level FlightAware
06:30PM -43.7440 169.3650 216° Southwest 422 486 34,000  Level FlightAware
06:30PM -43.8100 169.2980 216° Southwest 424 488 34,000 -1,140 Level FlightAware
06:31PM -43.8760 169.2310 216° Southwest 436 502 32,500 -2,220 Descending FlightAware
06:32PM -43.9480 169.1580 216° Southwest 426 490 30,900 -2,220 Descending FlightAware
06:32PM -44.0100 169.0950 216° Southwest 421 484 29,400 -1,560 Descending FlightAware
06:33PM -44.0900 169.0130 216° Southwest 424 488 28,500 -600 Descending FlightAware
06:34PM -44.1440 168.9580 216° Southwest 424 488 28,500  Level FlightAware
06:35PM -44.1980 168.9040 216° Southwest 424 488 28,500  Level FlightAware
06:35PM -44.2660 168.8350 216° Southwest 424 488 28,500  Level FlightAware
06:36PM -44.3200 168.7800 216° Southwest 424 488 28,500  Level FlightAware
06:37PM -44.3740 168.7260 216° Southwest 424 488 28,500  Level FlightAware
06:39PM -44.5397 168.7293 179° South  Level Estimated
06:40PM -44.6318 168.7312 179° South  Level Estimated
06:41PM -44.7239 168.7331 179° South  Level Estimated
06:42PM -44.8160 168.7350 179° South  Level Estimated
06:43PM -44.9081 168.7368 179° South  Level Estimated
06:44PM -45.0002 168.7387 179° South  Level Estimated
06:45PM -45.0211 168.7392 179° South  Level Estimated
06:46PM -45.0211 168.7392 245° Southwest  Level Estimated
06:47PM -45.0211 168.7392 245° Southwest  Level Estimated
06:48PM -45.0211 168.7392 245° Southwest  Level Estimated
06:49PM -45.0211 168.7392 245° Southwest  Level Estimated
06:50PM -45.0211 168.7392 245° Southwest  Level Estimated
06:51PM -45.0211 168.7392 245° Southwest  Level Estimated
06:52PM -45.0211 168.7392 245° Southwest  Level Estimated
06:53PM -45.0211 168.7392 245° Southwest  Level Estimated
06:54PM -45.0211 168.7392 245° Southwest  Level Estimated
06:55PM -45.0211 168.7392 245° Southwest  Level Estimated
06:56PM -45.0211 168.7392 245° Southwest  Level Estimated
06:57PM -45.0211 168.7392 245° Southwest  Level Estimated
06:58PM -45.0211 168.7392 245° Southwest  Level Estimated
06:59PM -45.0211 168.7392 245° Southwest  Level Estimated
07:00PM -45.0211 168.7392 245° Southwest  Level Estimated
07:01PM -45.0211 168.7392 245° Southwest  Level Estimated
07:02PM -45.0211 168.7392 245° Southwest  Level Estimated
07:03PM -45.0211 168.7392 245° Southwest  Level Estimated